sensor_id;sensor_type;location;lat;lon;timestamp;pressure;altitude;pressure_sealevel;temperature;humidity
43934;BME280;59081;42.706;23.306;2023-07-13T00:00:25;95255.66;;;23.01;60.57
43934;BME280;59081;42.706;23.306;2023-07-13T00:02:51;95274.25;;;23.15;60.41
43934;BME280;59081;42.706;23.306;2023-07-13T00:05:22;95372.31;;;23.82;60.30
43934;BME280;59081;42.706;23.306;2023-07-13T00:07:49;95329.75;;;23.56;60.23
43934;BME280;59081;42.706;23.306;2023-07-13T00:10:15;95319.28;;;23.51;60.47
43934;BME280;59081;42.706;23.306;2023-07-13T00:12:40;95422.25;;;24.17;60.27
43934;BME280;59081;42.706;23.306;2023-07-13T00:15:15;95331.28;;;23.57;60.73
43934;BME280;59081;42.706;23.306;2023-07-13T00:17:42;95305.28;;;23.40;60.94
43934;BME280;59081;42.706;23.306;2023-07-13T00:20:10;95288.97;;;23.33;60.75
43934;BME280;59081;42.706;23.306;2023-07-13T00:22:36;95285.69;;;23.23;60.94
43934;BME280;59081;42.706;23.306;2023-07-13T00:25:02;95289.50;;;23.25;61.20
43934;BME280;59081;42.706;23.306;2023-07-13T00:27:27;95222.56;;;22.77;61.04
43934;BME280;59081;42.706;23.306;2023-07-13T00:29:55;95362.44;;;23.65;61.46
43934;BME280;59081;42.706;23.306;2023-07-13T00:32:23;95387.91;;;23.83;61.54
43934;BME280;59081;42.706;23.306;2023-07-13T00:34:51;95342.56;;;23.51;61.59
43934;BME280;59081;42.706;23.306;2023-07-13T00:37:16;95318.38;;;23.20;62.15
43934;BME280;59081;42.706;23.306;2023-07-13T00:39:42;95415.63;;;23.63;63.29
43934;BME280;59081;42.706;23.306;2023-07-13T00:42:07;95324.13;;;22.87;63.90
43934;BME280;59081;42.706;23.306;2023-07-13T00:44:35;95338.16;;;22.92;64.25
43934;BME280;59081;42.706;23.306;2023-07-13T00:47:00;95384.84;;;23.18;64.73
43934;BME280;59081;42.706;23.306;2023-07-13T00:49:29;95432.75;;;23.59;64.67
43934;BME280;59081;42.706;23.306;2023-07-13T00:51:59;95445.53;;;23.60;65.26
43934;BME280;59081;42.706;23.306;2023-07-13T00:54:30;95326.16;;;22.92;64.87
43934;BME280;59081;42.706;23.306;2023-07-13T00:57:00;95229.06;;;22.28;65.20
43934;BME280;59081;42.706;23.306;2023-07-13T00:59:27;95229.06;;;22.22;64.77
43934;BME280;59081;42.706;23.306;2023-07-13T01:01:53;95371.25;;;23.27;64.79
43934;BME280;59081;42.706;23.306;2023-07-13T01:04:19;95319.78;;;22.91;65.44
43934;BME280;59081;42.706;23.306;2023-07-13T01:06:45;95299.09;;;22.95;65.50
43934;BME280;59081;42.706;23.306;2023-07-13T01:09:13;95338.81;;;23.26;64.92
43934;BME280;59081;42.706;23.306;2023-07-13T01:11:39;95278.94;;;22.90;64.83
43934;BME280;59081;42.706;23.306;2023-07-13T01:14:05;95402.56;;;23.65;64.98
43934;BME280;59081;42.706;23.306;2023-07-13T01:16:32;95222.69;;;22.27;65.64
43934;BME280;59081;42.706;23.306;2023-07-13T01:18:59;95329.25;;;22.72;66.83
43934;BME280;59081;42.706;23.306;2023-07-13T01:21:28;95261.97;;;22.33;66.77
43934;BME280;59081;42.706;23.306;2023-07-13T01:23:54;95392.50;;;23.17;67.21
43934;BME280;59081;42.706;23.306;2023-07-13T01:26:20;95261.16;;;22.38;67.26
43934;BME280;59081;42.706;23.306;2023-07-13T01:28:46;95368.00;;;23.12;66.55
43934;BME280;59081;42.706;23.306;2023-07-13T01:31:11;95323.34;;;22.92;66.67
43934;BME280;59081;42.706;23.306;2023-07-13T01:33:39;95356.22;;;23.19;65.91
43934;BME280;59081;42.706;23.306;2023-07-13T01:36:09;95362.31;;;23.35;65.54
43934;BME280;59081;42.706;23.306;2023-07-13T01:38:36;95345.44;;;23.29;65.20
43934;BME280;59081;42.706;23.306;2023-07-13T01:41:02;95305.69;;;23.08;64.99
43934;BME280;59081;42.706;23.306;2023-07-13T01:43:28;95315.13;;;23.11;65.08
43934;BME280;59081;42.706;23.306;2023-07-13T01:45:53;95436.44;;;23.95;65.28
43934;BME280;59081;42.706;23.306;2023-07-13T01:48:19;95273.53;;;22.98;64.78
43934;BME280;59081;42.706;23.306;2023-07-13T01:50:45;95277.63;;;22.97;64.73
43934;BME280;59081;42.706;23.306;2023-07-13T01:53:11;95265.94;;;22.82;65.06
43934;BME280;59081;42.706;23.306;2023-07-13T01:55:37;95369.66;;;23.54;64.88
43934;BME280;59081;42.706;23.306;2023-07-13T01:58:03;95238.16;;;22.67;64.99
43934;BME280;59081;42.706;23.306;2023-07-13T02:00:29;95412.19;;;23.86;64.97
43934;BME280;59081;42.706;23.306;2023-07-13T02:02:55;95390.81;;;23.67;65.10
43934;BME280;59081;42.706;23.306;2023-07-13T02:05:20;95326.56;;;23.24;65.47
43934;BME280;59081;42.706;23.306;2023-07-13T02:07:46;95316.13;;;23.13;65.39
43934;BME280;59081;42.706;23.306;2023-07-13T02:10:12;95324.25;;;23.22;65.12
43934;BME280;59081;42.706;23.306;2023-07-13T02:12:38;95296.28;;;23.00;65.07
43934;BME280;59081;42.706;23.306;2023-07-13T02:15:04;95321.25;;;23.09;64.42
43934;BME280;59081;42.706;23.306;2023-07-13T02:17:30;95263.69;;;22.64;64.89
43934;BME280;59081;42.706;23.306;2023-07-13T02:19:58;95372.72;;;23.45;64.67
43934;BME280;59081;42.706;23.306;2023-07-13T02:22:24;95345.47;;;23.23;64.78
43934;BME280;59081;42.706;23.306;2023-07-13T02:24:50;95354.69;;;23.18;64.56
43934;BME280;59081;42.706;23.306;2023-07-13T02:27:15;95292.31;;;22.51;65.16
43934;BME280;59081;42.706;23.306;2023-07-13T02:29:41;95332.84;;;22.78;65.35
43934;BME280;59081;42.706;23.306;2023-07-13T02:32:07;95369.53;;;23.08;65.58
43934;BME280;59081;42.706;23.306;2023-07-13T02:34:33;95259.13;;;22.38;64.87
43934;BME280;59081;42.706;23.306;2023-07-13T02:37:01;95377.69;;;23.11;65.46
43934;BME280;59081;42.706;23.306;2023-07-13T02:39:27;95451.16;;;23.60;65.11
43934;BME280;59081;42.706;23.306;2023-07-13T02:41:52;95352.97;;;22.93;65.22
43934;BME280;59081;42.706;23.306;2023-07-13T02:44:18;95325.69;;;22.66;65.25
43934;BME280;59081;42.706;23.306;2023-07-13T02:46:44;95366.50;;;22.89;64.87
43934;BME280;59081;42.706;23.306;2023-07-13T02:49:10;95301.72;;;22.53;65.27
43934;BME280;59081;42.706;23.306;2023-07-13T02:51:35;95256.59;;;22.18;65.24
43934;BME280;59081;42.706;23.306;2023-07-13T02:54:04;95445.03;;;23.50;65.09
43934;BME280;59081;42.706;23.306;2023-07-13T02:56:31;95232.41;;;22.04;64.80
43934;BME280;59081;42.706;23.306;2023-07-13T02:58:57;95300.69;;;22.56;64.71
43934;BME280;59081;42.706;23.306;2023-07-13T03:01:23;95312.94;;;22.53;64.82
43934;BME280;59081;42.706;23.306;2023-07-13T03:03:50;95456.06;;;23.37;65.30
43934;BME280;59081;42.706;23.306;2023-07-13T03:06:16;95371.09;;;22.86;65.34
43934;BME280;59081;42.706;23.306;2023-07-13T03:08:43;95465.22;;;23.49;64.95
43934;BME280;59081;42.706;23.306;2023-07-13T03:11:14;95421.63;;;23.20;65.17
43934;BME280;59081;42.706;23.306;2023-07-13T03:13:41;95349.19;;;22.68;64.84
43934;BME280;59081;42.706;23.306;2023-07-13T03:16:08;95325.72;;;22.49;64.69
43934;BME280;59081;42.706;23.306;2023-07-13T03:18:33;95425.72;;;23.13;65.16
43934;BME280;59081;42.706;23.306;2023-07-13T03:20:59;95428.53;;;23.19;65.09
43934;BME280;59081;42.706;23.306;2023-07-13T03:23:24;95464.50;;;23.54;64.59
43934;BME280;59081;42.706;23.306;2023-07-13T03:26:00;95382.03;;;23.07;64.33
43934;BME280;59081;42.706;23.306;2023-07-13T03:28:26;95301.75;;;22.42;64.34
43934;BME280;59081;42.706;23.306;2023-07-13T03:30:59;95298.69;;;22.46;64.32
43934;BME280;59081;42.706;23.306;2023-07-13T03:33:25;95326.47;;;22.61;64.12
43934;BME280;59081;42.706;23.306;2023-07-13T03:35:51;95416.22;;;23.22;64.83
43934;BME280;59081;42.706;23.306;2023-07-13T03:38:16;95480.81;;;23.55;64.48
43934;BME280;59081;42.706;23.306;2023-07-13T03:40:42;95411.16;;;23.09;64.80
43934;BME280;59081;42.706;23.306;2023-07-13T03:43:07;95346.88;;;22.67;65.04
43934;BME280;59081;42.706;23.306;2023-07-13T03:45:33;95348.63;;;22.70;65.18
43934;BME280;59081;42.706;23.306;2023-07-13T03:47:58;95385.66;;;22.90;65.64
43934;BME280;59081;42.706;23.306;2023-07-13T03:50:24;95397.16;;;22.92;65.60
43934;BME280;59081;42.706;23.306;2023-07-13T03:52:49;95473.16;;;23.45;65.22
43934;BME280;59081;42.706;23.306;2023-07-13T03:55:15;95393.56;;;22.92;64.78
43934;BME280;59081;42.706;23.306;2023-07-13T03:57:40;95378.00;;;22.74;65.51
43934;BME280;59081;42.706;23.306;2023-07-13T04:00:06;95353.78;;;22.60;64.72
43934;BME280;59081;42.706;23.306;2023-07-13T04:02:32;95424.94;;;23.07;65.26
43934;BME280;59081;42.706;23.306;2023-07-13T04:04:58;95323.19;;;22.45;64.74
43934;BME280;59081;42.706;23.306;2023-07-13T04:07:23;95314.75;;;22.45;65.11
43934;BME280;59081;42.706;23.306;2023-07-13T04:09:49;95303.53;;;22.34;65.37
43934;BME280;59081;42.706;23.306;2023-07-13T04:12:14;95366.75;;;22.74;65.92
43934;BME280;59081;42.706;23.306;2023-07-13T04:14:40;95336.19;;;22.48;66.37
43934;BME280;59081;42.706;23.306;2023-07-13T04:17:06;95314.50;;;22.43;66.09
43934;BME280;59081;42.706;23.306;2023-07-13T04:19:31;95294.09;;;22.20;66.18
43934;BME280;59081;42.706;23.306;2023-07-13T04:21:57;95318.06;;;22.49;66.01
43934;BME280;59081;42.706;23.306;2023-07-13T04:24:22;95444.53;;;23.41;66.05
43934;BME280;59081;42.706;23.306;2023-07-13T04:26:51;95394.06;;;23.07;65.37
43934;BME280;59081;42.706;23.306;2023-07-13T04:29:16;95440.50;;;23.36;65.87
43934;BME280;59081;42.706;23.306;2023-07-13T04:31:42;95446.06;;;23.47;65.55
43934;BME280;59081;42.706;23.306;2023-07-13T04:34:07;95471.41;;;23.53;65.71
43934;BME280;59081;42.706;23.306;2023-07-13T04:36:33;95373.91;;;22.98;65.15
43934;BME280;59081;42.706;23.306;2023-07-13T04:38:58;95369.06;;;22.98;64.20
43934;BME280;59081;42.706;23.306;2023-07-13T04:41:26;95434.56;;;23.45;63.77
43934;BME280;59081;42.706;23.306;2023-07-13T04:43:53;95453.97;;;23.60;63.58
43934;BME280;59081;42.706;23.306;2023-07-13T04:46:19;95371.84;;;23.04;63.17
43934;BME280;59081;42.706;23.306;2023-07-13T04:48:44;95413.41;;;23.33;63.19
43934;BME280;59081;42.706;23.306;2023-07-13T04:51:10;95322.88;;;22.66;63.18
43934;BME280;59081;42.706;23.306;2023-07-13T04:53:36;95459.38;;;23.52;63.25
43934;BME280;59081;42.706;23.306;2023-07-13T04:56:03;95507.34;;;23.77;63.22
43934;BME280;59081;42.706;23.306;2023-07-13T04:58:29;95331.06;;;22.58;63.61
43934;BME280;59081;42.706;23.306;2023-07-13T05:01:00;95434.63;;;23.34;63.90
43934;BME280;59081;42.706;23.306;2023-07-13T05:03:26;95518.84;;;23.73;63.72
43934;BME280;59081;42.706;23.306;2023-07-13T05:06:00;95466.78;;;23.44;64.44
43934;BME280;59081;42.706;23.306;2023-07-13T05:08:26;95477.53;;;23.51;63.79
43934;BME280;59081;42.706;23.306;2023-07-13T05:10:52;95506.06;;;23.83;63.68
43934;BME280;59081;42.706;23.306;2023-07-13T05:13:18;95496.59;;;23.86;63.33
43934;BME280;59081;42.706;23.306;2023-07-13T05:15:43;95511.66;;;23.89;63.20
43934;BME280;59081;42.706;23.306;2023-07-13T05:18:09;95512.38;;;24.01;63.15
43934;BME280;59081;42.706;23.306;2023-07-13T05:20:34;95389.59;;;23.40;63.31
43934;BME280;59081;42.706;23.306;2023-07-13T05:23:00;95415.69;;;23.51;61.82
43934;BME280;59081;42.706;23.306;2023-07-13T05:25:25;95363.94;;;22.97;62.46
43934;BME280;59081;42.706;23.306;2023-07-13T05:27:51;95436.31;;;23.65;62.47
43934;BME280;59081;42.706;23.306;2023-07-13T05:30:16;95388.06;;;23.44;62.43
43934;BME280;59081;42.706;23.306;2023-07-13T05:32:42;95316.66;;;23.12;60.98
43934;BME280;59081;42.706;23.306;2023-07-13T05:35:08;95448.69;;;24.03;60.93
43934;BME280;59081;42.706;23.306;2023-07-13T05:37:33;95331.13;;;23.33;60.56
43934;BME280;59081;42.706;23.306;2023-07-13T05:39:59;95450.50;;;23.95;60.65
43934;BME280;59081;42.706;23.306;2023-07-13T05:42:24;95385.19;;;23.61;60.20
43934;BME280;59081;42.706;23.306;2023-07-13T05:44:50;95456.78;;;24.23;59.65
43934;BME280;59081;42.706;23.306;2023-07-13T05:47:16;95388.19;;;23.74;59.47
43934;BME280;59081;42.706;23.306;2023-07-13T05:49:41;95405.56;;;23.84;59.40
43934;BME280;59081;42.706;23.306;2023-07-13T05:52:07;95404.78;;;23.83;59.33
43934;BME280;59081;42.706;23.306;2023-07-13T05:54:33;95360.91;;;23.64;58.91
43934;BME280;59081;42.706;23.306;2023-07-13T05:57:00;95391.69;;;23.91;59.19
43934;BME280;59081;42.706;23.306;2023-07-13T05:59:26;95349.22;;;23.54;59.84
43934;BME280;59081;42.706;23.306;2023-07-13T06:01:51;95340.47;;;23.57;59.83
43934;BME280;59081;42.706;23.306;2023-07-13T06:04:20;95314.91;;;23.61;59.08
43934;BME280;59081;42.706;23.306;2023-07-13T06:06:45;95482.97;;;24.84;59.34
43934;BME280;59081;42.706;23.306;2023-07-13T06:09:11;95371.59;;;24.12;58.91
43934;BME280;59081;42.706;23.306;2023-07-13T06:11:36;95374.03;;;24.38;57.86
43934;BME280;59081;42.706;23.306;2023-07-13T06:14:02;95477.69;;;25.35;56.72
43934;BME280;59081;42.706;23.306;2023-07-13T06:16:29;95527.38;;;25.67;55.82
43934;BME280;59081;42.706;23.306;2023-07-13T06:18:54;95430.44;;;25.16;56.03
43934;BME280;59081;42.706;23.306;2023-07-13T06:21:22;95431.31;;;25.06;55.41
43934;BME280;59081;42.706;23.306;2023-07-13T06:23:49;95470.56;;;25.52;55.07
43934;BME280;59081;42.706;23.306;2023-07-13T06:26:15;95487.09;;;25.67;54.86
43934;BME280;59081;42.706;23.306;2023-07-13T06:28:40;95358.59;;;25.04;55.00
43934;BME280;59081;42.706;23.306;2023-07-13T06:31:11;95339.72;;;24.93;56.11
43934;BME280;59081;42.706;23.306;2023-07-13T06:33:37;95355.16;;;25.11;56.61
43934;BME280;59081;42.706;23.306;2023-07-13T06:36:05;95385.91;;;25.58;54.93
43934;BME280;59081;42.706;23.306;2023-07-13T06:38:31;95424.53;;;26.06;53.84
43934;BME280;59081;42.706;23.306;2023-07-13T06:40:57;95445.78;;;26.31;53.13
43934;BME280;59081;42.706;23.306;2023-07-13T06:43:23;95454.69;;;26.54;52.75
43934;BME280;59081;42.706;23.306;2023-07-13T06:45:50;95408.31;;;26.12;52.91
43934;BME280;59081;42.706;23.306;2023-07-13T06:48:17;95434.91;;;26.54;52.10
43934;BME280;59081;42.706;23.306;2023-07-13T06:50:46;95513.66;;;27.27;49.85
43934;BME280;59081;42.706;23.306;2023-07-13T06:53:12;95505.84;;;27.33;51.10
43934;BME280;59081;42.706;23.306;2023-07-13T06:55:38;95511.81;;;27.30;51.05
43934;BME280;59081;42.706;23.306;2023-07-13T06:58:04;95490.03;;;27.12;51.32
43934;BME280;59081;42.706;23.306;2023-07-13T07:00:30;95491.66;;;27.20;49.90
43934;BME280;59081;42.706;23.306;2023-07-13T07:02:55;95406.56;;;26.60;50.55
43934;BME280;59081;42.706;23.306;2023-07-13T07:05:21;95405.53;;;26.76;49.23
43934;BME280;59081;42.706;23.306;2023-07-13T07:07:49;95379.97;;;26.68;49.26
43934;BME280;59081;42.706;23.306;2023-07-13T07:10:14;95440.84;;;27.01;49.41
43934;BME280;59081;42.706;23.306;2023-07-13T07:12:40;95428.97;;;27.03;49.02
43934;BME280;59081;42.706;23.306;2023-07-13T07:15:06;95422.69;;;26.97;48.83
43934;BME280;59081;42.706;23.306;2023-07-13T07:17:31;95431.31;;;27.18;48.62
43934;BME280;59081;42.706;23.306;2023-07-13T07:19:57;95413.16;;;27.26;47.14
43934;BME280;59081;42.706;23.306;2023-07-13T07:22:22;95415.31;;;27.20;48.44
43934;BME280;59081;42.706;23.306;2023-07-13T07:24:47;95345.88;;;26.80;48.53
43934;BME280;59081;42.706;23.306;2023-07-13T07:27:13;95440.91;;;27.54;48.92
43934;BME280;59081;42.706;23.306;2023-07-13T07:29:38;95415.56;;;27.49;48.26
43934;BME280;59081;42.706;23.306;2023-07-13T07:32:04;95419.38;;;27.78;47.81
43934;BME280;59081;42.706;23.306;2023-07-13T07:34:30;95318.84;;;27.24;47.46
43934;BME280;59081;42.706;23.306;2023-07-13T07:37:00;95375.84;;;27.67;47.07
43934;BME280;59081;42.706;23.306;2023-07-13T07:39:26;95437.06;;;28.18;46.69
43934;BME280;59081;42.706;23.306;2023-07-13T07:41:52;95387.66;;;27.92;46.01
43934;BME280;59081;42.706;23.306;2023-07-13T07:44:17;95371.38;;;27.85;45.91
43934;BME280;59081;42.706;23.306;2023-07-13T07:46:43;95362.66;;;27.83;45.85
43934;BME280;59081;42.706;23.306;2023-07-13T07:49:08;95381.38;;;27.86;46.08
43934;BME280;59081;42.706;23.306;2023-07-13T07:51:34;95323.50;;;27.48;46.14
43934;BME280;59081;42.706;23.306;2023-07-13T07:53:59;95385.47;;;27.98;46.22
43934;BME280;59081;42.706;23.306;2023-07-13T07:56:25;95262.19;;;27.29;45.72
43934;BME280;59081;42.706;23.306;2023-07-13T07:58:51;95453.88;;;28.84;44.90
43934;BME280;59081;42.706;23.306;2023-07-13T08:01:16;95389.28;;;28.69;44.43
43934;BME280;59081;42.706;23.306;2023-07-13T08:03:42;95364.78;;;28.58;44.94
43934;BME280;59081;42.706;23.306;2023-07-13T08:06:07;95452.81;;;29.36;44.77
43934;BME280;59081;42.706;23.306;2023-07-13T08:08:34;95419.22;;;29.40;45.05
43934;BME280;59081;42.706;23.306;2023-07-13T08:11:02;95334.94;;;28.99;44.77
43934;BME280;59081;42.706;23.306;2023-07-13T08:13:28;95401.19;;;29.37;44.20
43934;BME280;59081;42.706;23.306;2023-07-13T08:15:53;95334.13;;;29.19;43.71
43934;BME280;59081;42.706;23.306;2023-07-13T08:18:19;95376.25;;;29.72;43.22
43934;BME280;59081;42.706;23.306;2023-07-13T08:20:44;95308.19;;;29.43;42.68
43934;BME280;59081;42.706;23.306;2023-07-13T08:23:10;95403.91;;;30.15;42.06
43934;BME280;59081;42.706;23.306;2023-07-13T08:25:36;95309.69;;;29.44;42.66
43934;BME280;59081;42.706;23.306;2023-07-13T08:28:04;95337.63;;;29.69;42.16
43934;BME280;59081;42.706;23.306;2023-07-13T08:30:30;95303.56;;;29.69;41.43
43934;BME280;59081;42.706;23.306;2023-07-13T08:32:57;95408.75;;;30.43;42.76
43934;BME280;59081;42.706;23.306;2023-07-13T08:35:22;95371.25;;;30.52;41.40
43934;BME280;59081;42.706;23.306;2023-07-13T08:37:47;95343.94;;;30.41;42.00
43934;BME280;59081;42.706;23.306;2023-07-13T08:40:14;95392.38;;;30.79;40.95
43934;BME280;59081;42.706;23.306;2023-07-13T08:42:46;95378.31;;;30.74;40.41
43934;BME280;59081;42.706;23.306;2023-07-13T08:45:21;95329.03;;;30.71;40.12
43934;BME280;59081;42.706;23.306;2023-07-13T08:48:09;95431.66;;;31.34;39.30
43934;BME280;59081;42.706;23.306;2023-07-13T08:53:16;95376.63;;;31.24;37.84
43934;BME280;59081;42.706;23.306;2023-07-13T08:55:42;95397.13;;;31.45;38.81
43934;BME280;59081;42.706;23.306;2023-07-13T08:58:15;95302.88;;;30.96;38.50
43934;BME280;59081;42.706;23.306;2023-07-13T09:03:23;95423.53;;;32.09;38.64
43934;BME280;59081;42.706;23.306;2023-07-13T09:05:54;95453.81;;;32.44;38.05
43934;BME280;59081;42.706;23.306;2023-07-13T09:14:30;95460.19;;;32.68;37.91
43934;BME280;59081;42.706;23.306;2023-07-13T09:16:59;95428.75;;;32.43;38.08
43934;BME280;59081;42.706;23.306;2023-07-13T09:19:28;95413.25;;;32.29;37.67
43934;BME280;59081;42.706;23.306;2023-07-13T09:21:55;95459.53;;;32.84;37.65
43934;BME280;59081;42.706;23.306;2023-07-13T09:24:27;95394.00;;;32.69;36.67
43934;BME280;59081;42.706;23.306;2023-07-13T09:26:58;95380.53;;;32.62;36.46
43934;BME280;59081;42.706;23.306;2023-07-13T09:29:29;95296.84;;;31.70;38.00
43934;BME280;59081;42.706;23.306;2023-07-13T09:31:57;95300.97;;;31.84;37.15
43934;BME280;59081;42.706;23.306;2023-07-13T09:34:25;95391.84;;;32.53;37.37
43934;BME280;59081;42.706;23.306;2023-07-13T09:36:51;95331.13;;;32.35;36.10
43934;BME280;59081;42.706;23.306;2023-07-13T09:42:15;95451.66;;;33.25;37.63
43934;BME280;59081;42.706;23.306;2023-07-13T09:45:01;95365.28;;;33.00;36.19
43934;BME280;59081;42.706;23.306;2023-07-13T09:47:37;95435.41;;;33.77;35.75
43934;BME280;59081;42.706;23.306;2023-07-13T09:50:06;95327.00;;;33.28;35.58
43934;BME280;59081;42.706;23.306;2023-07-13T09:52:46;95389.28;;;33.98;34.81
43934;BME280;59081;42.706;23.306;2023-07-13T09:55:36;95362.81;;;33.98;34.45
43934;BME280;59081;42.706;23.306;2023-07-13T09:58:25;95288.78;;;33.75;34.33
43934;BME280;59081;42.706;23.306;2023-07-13T10:03:30;95263.13;;;32.81;35.35
43934;BME280;59081;42.706;23.306;2023-07-13T10:06:20;95411.97;;;33.79;29.78
43934;BME280;59081;42.706;23.306;2023-07-13T10:08:52;95289.44;;;33.14;27.64
43934;BME280;59081;42.706;23.306;2023-07-13T10:11:29;95328.94;;;33.42;26.91
43934;BME280;59081;42.706;23.306;2023-07-13T10:13:57;95404.22;;;33.72;26.52
43934;BME280;59081;42.706;23.306;2023-07-13T10:16:26;95377.19;;;33.90;25.59
43934;BME280;59081;42.706;23.306;2023-07-13T10:18:58;95352.94;;;34.26;26.57
43934;BME280;59081;42.706;23.306;2023-07-13T10:21:29;95283.75;;;33.83;26.60
43934;BME280;59081;42.706;23.306;2023-07-13T10:24:06;95306.31;;;34.06;26.04
43934;BME280;59081;42.706;23.306;2023-07-13T10:26:41;95409.41;;;35.06;26.00
43934;BME280;59081;42.706;23.306;2023-07-13T10:29:12;95269.84;;;34.41;25.78
43934;BME280;59081;42.706;23.306;2023-07-13T10:31:40;95300.72;;;34.79;25.64
43934;BME280;59081;42.706;23.306;2023-07-13T10:34:11;95283.84;;;34.83;25.79
43934;BME280;59081;42.706;23.306;2023-07-13T10:36:47;95337.97;;;35.44;24.94
43934;BME280;59081;42.706;23.306;2023-07-13T10:39:24;95384.47;;;35.91;25.01
43934;BME280;59081;42.706;23.306;2023-07-13T10:41:54;95279.88;;;35.24;24.64
43934;BME280;59081;42.706;23.306;2023-07-13T10:44:30;95381.16;;;35.95;24.58
43934;BME280;59081;42.706;23.306;2023-07-13T10:46:59;95308.00;;;35.65;24.28
43934;BME280;59081;42.706;23.306;2023-07-13T10:49:27;95263.66;;;35.56;23.27
43934;BME280;59081;42.706;23.306;2023-07-13T10:51:57;95327.00;;;36.08;23.55
43934;BME280;59081;42.706;23.306;2023-07-13T10:57:14;95359.66;;;36.63;24.03
43934;BME280;59081;42.706;23.306;2023-07-13T10:59:42;95365.13;;;36.49;22.66
43934;BME280;59081;42.706;23.306;2023-07-13T11:02:27;95269.50;;;35.68;23.13
43934;BME280;59081;42.706;23.306;2023-07-13T11:04:55;95357.03;;;36.26;22.94
43934;BME280;59081;42.706;23.306;2023-07-13T11:07:28;95256.72;;;35.49;22.50
43934;BME280;59081;42.706;23.306;2023-07-13T11:09:58;95218.56;;;35.56;22.42
43934;BME280;59081;42.706;23.306;2023-07-13T11:17:48;95329.56;;;36.83;22.00
43934;BME280;59081;42.706;23.306;2023-07-13T11:23:06;95255.94;;;36.57;22.32
43934;BME280;59081;42.706;23.306;2023-07-13T11:25:34;95213.66;;;36.17;22.68
43934;BME280;59081;42.706;23.306;2023-07-13T11:36:13;95255.41;;;37.32;22.08
43934;BME280;59081;42.706;23.306;2023-07-13T11:38:41;95269.63;;;37.30;21.30
43934;BME280;59081;42.706;23.306;2023-07-13T11:41:21;95328.44;;;37.93;21.75
43934;BME280;59081;42.706;23.306;2023-07-13T11:43:51;95264.16;;;37.55;22.53
43934;BME280;59081;42.706;23.306;2023-07-13T11:46:23;95292.59;;;37.51;22.47
43934;BME280;59081;42.706;23.306;2023-07-13T11:48:50;95144.22;;;36.18;23.12
43934;BME280;59081;42.706;23.306;2023-07-13T11:51:23;95308.44;;;36.69;22.89
43934;BME280;59081;42.706;23.306;2023-07-13T11:53:54;95324.88;;;37.19;23.94
43934;BME280;59081;42.706;23.306;2023-07-13T11:56:25;95166.53;;;36.20;23.87
43934;BME280;59081;42.706;23.306;2023-07-13T11:58:55;95226.72;;;36.70;23.65
43934;BME280;59081;42.706;23.306;2023-07-13T12:01:31;95179.78;;;36.35;23.60
43934;BME280;59081;42.706;23.306;2023-07-13T12:04:00;95214.34;;;36.99;23.39
43934;BME280;59081;42.706;23.306;2023-07-13T12:06:34;95204.03;;;37.26;23.86
43934;BME280;59081;42.706;23.306;2023-07-13T12:09:13;95228.03;;;37.52;23.50
43934;BME280;59081;42.706;23.306;2023-07-13T12:11:42;95181.34;;;37.31;23.45
43934;BME280;59081;42.706;23.306;2023-07-13T12:14:18;95181.50;;;37.66;22.44
43934;BME280;59081;42.706;23.306;2023-07-13T12:16:45;95293.88;;;38.47;22.21
43934;BME280;59081;42.706;23.306;2023-07-13T12:19:19;95220.81;;;37.96;21.97
43934;BME280;59081;42.706;23.306;2023-07-13T12:21:45;95199.66;;;37.80;21.35
43934;BME280;59081;42.706;23.306;2023-07-13T12:24:19;95149.06;;;36.99;22.39
43934;BME280;59081;42.706;23.306;2023-07-13T12:27:06;95271.50;;;37.58;22.47
43934;BME280;59081;42.706;23.306;2023-07-13T12:29:49;95219.16;;;37.27;23.14
43934;BME280;59081;42.706;23.306;2023-07-13T12:32:17;95146.59;;;37.26;22.06
43934;BME280;59081;42.706;23.306;2023-07-13T12:34:54;95174.03;;;37.72;21.47
43934;BME280;59081;42.706;23.306;2023-07-13T12:37:20;95217.16;;;38.17;21.58
43934;BME280;59081;42.706;23.306;2023-07-13T12:39:47;95203.69;;;37.98;20.84
43934;BME280;59081;42.706;23.306;2023-07-13T12:42:18;95248.50;;;38.57;20.52
43934;BME280;59081;42.706;23.306;2023-07-13T12:44:52;95104.94;;;37.16;21.74
43934;BME280;59081;42.706;23.306;2023-07-13T12:47:20;95221.88;;;38.12;21.82
43934;BME280;59081;42.706;23.306;2023-07-13T12:49:57;95184.75;;;38.28;22.21
43934;BME280;59081;42.706;23.306;2023-07-13T12:57:29;95124.06;;;37.89;20.92
43934;BME280;59081;42.706;23.306;2023-07-13T12:59:55;95155.41;;;37.40;21.38
43934;BME280;59081;42.706;23.306;2023-07-13T13:04:52;95123.66;;;36.84;20.84
43934;BME280;59081;42.706;23.306;2023-07-13T13:07:20;95190.94;;;37.56;21.20
43934;BME280;59081;42.706;23.306;2023-07-13T13:09:45;95200.72;;;38.08;21.00
43934;BME280;59081;42.706;23.306;2023-07-13T13:12:12;95086.19;;;37.81;20.75
43934;BME280;59081;42.706;23.306;2023-07-13T13:14:38;95120.34;;;36.99;21.11
43934;BME280;59081;42.706;23.306;2023-07-13T13:17:18;95199.06;;;37.93;21.12
43934;BME280;59081;42.706;23.306;2023-07-13T13:19:45;95107.53;;;37.78;20.86
43934;BME280;59081;42.706;23.306;2023-07-13T13:22:15;95192.50;;;37.69;21.14
43934;BME280;59081;42.706;23.306;2023-07-13T13:24:40;95134.41;;;37.38;21.62
43934;BME280;59081;42.706;23.306;2023-07-13T13:27:21;95099.53;;;37.10;21.57
43934;BME280;59081;42.706;23.306;2023-07-13T13:29:49;95133.91;;;37.74;21.07
43934;BME280;59081;42.706;23.306;2023-07-13T13:32:17;95166.50;;;38.47;20.57
43934;BME280;59081;42.706;23.306;2023-07-13T13:34:42;95155.25;;;38.74;20.24
43934;BME280;59081;42.706;23.306;2023-07-13T13:37:26;95087.72;;;38.40;19.96